createdAt,value
2023-03-17T00:02:59.549Z,90.30
2023-03-17T00:06:28.509Z,90.20
2023-03-17T00:09:50.808Z,90.30
2023-03-17T00:13:13.105Z,90.20
2023-03-17T00:16:39.793Z,90.20
2023-03-17T00:20:02.716Z,90.10
2023-03-17T00:23:25.499Z,90.10
2023-03-17T00:26:48.330Z,90.20
2023-03-17T00:30:12.119Z,90.10
2023-03-17T00:33:37.139Z,90.10
2023-03-17T00:36:59.463Z,90.10
2023-03-17T00:40:25.541Z,90.10
2023-03-17T00:43:47.838Z,90.10
2023-03-17T00:47:11.857Z,90.00
2023-03-17T00:50:34.169Z,90.10
2023-03-17T00:53:57.516Z,90.00
2023-03-17T00:57:19.866Z,90.10
2023-03-17T01:00:42.366Z,90.00
2023-03-17T01:04:04.797Z,90.00
2023-03-17T01:07:28.279Z,90.00
2023-03-17T01:10:50.512Z,90.00
2023-03-17T01:14:15.228Z,90.00
2023-03-17T01:17:38.078Z,90.00
2023-03-17T01:21:00.452Z,90.00
2023-03-17T01:24:22.728Z,90.00
2023-03-17T01:27:46.512Z,90.00
2023-03-17T01:31:09.580Z,90.00
2023-03-17T01:34:32.875Z,90.00
2023-03-17T01:37:57.216Z,90.00
2023-03-17T01:41:20.970Z,90.00
2023-03-17T01:45:06.110Z,90.00
2023-03-17T01:48:30.200Z,90.00
2023-03-17T01:52:00.257Z,89.90
2023-03-17T01:55:22.969Z,89.80
2023-03-17T01:58:49.186Z,89.80
2023-03-17T02:02:16.721Z,89.90
2023-03-17T02:05:39.607Z,89.80
2023-03-17T02:09:01.975Z,89.70
2023-03-17T02:12:25.419Z,89.70
2023-03-17T02:15:50.300Z,89.60
2023-03-17T02:19:14.225Z,89.60
2023-03-17T02:22:36.533Z,89.70
2023-03-17T02:25:58.992Z,89.60
2023-03-17T02:29:23.798Z,89.50
2023-03-17T02:32:46.352Z,89.50
2023-03-17T02:36:10.877Z,89.70
2023-03-17T02:39:33.706Z,89.50
2023-03-17T02:42:56.443Z,89.60
2023-03-17T02:46:23.872Z,89.60
2023-03-17T02:49:46.693Z,89.40
2023-03-17T02:53:09.347Z,89.50
2023-03-17T02:56:31.923Z,89.50
2023-03-17T02:59:54.121Z,89.30
2023-03-17T03:03:16.365Z,89.30
2023-03-17T03:06:39.878Z,89.30
2023-03-17T03:10:02.491Z,89.40
2023-03-17T03:13:24.742Z,89.30
2023-03-17T03:16:47.009Z,89.30
2023-03-17T03:20:11.551Z,89.60
2023-03-17T03:23:34.236Z,89.40
2023-03-17T03:26:56.514Z,89.40
2023-03-17T03:30:19.238Z,89.30
2023-03-17T03:33:42.276Z,89.30
2023-03-17T03:37:04.517Z,89.30
2023-03-17T03:40:27.079Z,89.10
2023-03-17T03:43:49.282Z,89.30
2023-03-17T03:47:11.939Z,89.00
2023-03-17T03:50:34.165Z,89.10
2023-03-17T03:53:56.400Z,89.20
2023-03-17T03:57:18.534Z,89.00
2023-03-17T04:00:40.782Z,89.10
2023-03-17T04:04:03.052Z,89.00
2023-03-17T04:07:25.480Z,89.10
2023-03-17T04:10:47.916Z,89.10
2023-03-17T04:14:10.242Z,89.00
2023-03-17T04:17:32.657Z,89.20
2023-03-17T04:20:54.909Z,88.80
2023-03-17T04:24:17.142Z,89.00
2023-03-17T04:27:39.429Z,89.10
2023-03-17T04:31:01.854Z,89.00
2023-03-17T04:34:24.165Z,88.80
2023-03-17T04:37:46.658Z,89.10
2023-03-17T04:41:08.934Z,89.10
2023-03-17T04:44:31.285Z,89.00
2023-03-17T04:47:53.552Z,88.80
2023-03-17T04:51:17.079Z,88.90
2023-03-17T04:54:39.446Z,88.80
2023-03-17T04:58:01.698Z,88.80
2023-03-17T05:01:24.191Z,88.80
2023-03-17T05:04:46.712Z,88.80
2023-03-17T05:08:08.963Z,88.60
2023-03-17T05:11:32.216Z,88.70
2023-03-17T05:14:54.462Z,88.80
2023-03-17T05:18:18.189Z,88.80
2023-03-17T05:21:40.750Z,88.80
2023-03-17T05:25:03.968Z,88.80
2023-03-17T05:28:26.810Z,88.80
2023-03-17T05:31:49.051Z,88.50
2023-03-17T05:35:11.373Z,88.80
2023-03-17T05:38:33.568Z,88.60
2023-03-17T05:41:56.902Z,88.70
2023-03-17T05:45:19.241Z,88.50
2023-03-17T05:48:41.951Z,88.60
2023-03-17T05:52:04.271Z,88.50
2023-03-17T05:55:26.757Z,88.50
2023-03-17T05:58:49.226Z,88.50
2023-03-17T06:02:12.245Z,88.80
2023-03-17T06:05:34.999Z,89.30
2023-03-17T06:08:57.184Z,89.30
2023-03-17T06:12:19.422Z,89.30
2023-03-17T06:15:42.450Z,89.30
2023-03-17T06:19:04.732Z,89.50
2023-03-17T06:22:27.695Z,89.30
2023-03-17T06:25:50.475Z,89.30
2023-03-17T06:29:12.734Z,89.30
2023-03-17T06:32:35.340Z,89.60
2023-03-17T06:35:58.761Z,90.10
2023-03-17T06:39:20.994Z,90.10
2023-03-17T06:42:43.313Z,90.10
2023-03-17T06:46:07.280Z,90.20
2023-03-17T06:49:29.491Z,90.40
2023-03-17T06:52:51.979Z,90.30
2023-03-17T06:56:28.867Z,90.50
2023-03-17T06:59:52.348Z,90.50
2023-03-17T07:03:17.623Z,90.60
2023-03-17T07:06:39.731Z,90.60
2023-03-17T07:10:02.192Z,90.60
2023-03-17T07:13:24.569Z,90.60
2023-03-17T07:16:48.500Z,90.70
2023-03-17T07:20:11.797Z,90.70
2023-03-17T07:23:34.123Z,90.80
2023-03-17T07:26:56.306Z,90.80
2023-03-17T07:30:19.300Z,90.90
2023-03-17T07:33:42.073Z,90.60
2023-03-17T07:37:05.237Z,90.10
2023-03-17T07:40:27.574Z,90.20
2023-03-17T07:43:50.716Z,90.20
2023-03-17T07:47:13.315Z,89.90
2023-03-17T07:50:36.874Z,90.00
2023-03-17T07:54:03.878Z,90.10
2023-03-17T07:57:27.161Z,90.50
2023-03-17T08:00:49.574Z,90.00
2023-03-17T08:04:13.249Z,90.00
2023-03-17T08:07:37.467Z,90.00
2023-03-17T08:11:04.478Z,90.20
2023-03-17T08:14:26.668Z,90.20
2023-03-17T08:17:48.941Z,90.20
2023-03-17T08:21:11.292Z,90.20
2023-03-17T08:24:33.721Z,90.30
2023-03-17T08:27:55.955Z,90.10
2023-03-17T08:31:21.071Z,90.10
2023-03-17T08:34:44.427Z,90.30
2023-03-17T08:38:07.838Z,90.20
2023-03-17T08:41:30.238Z,90.30
2023-03-17T08:44:52.490Z,90.40
2023-03-17T08:48:15.276Z,90.30
2023-03-17T08:51:38.557Z,90.40
2023-03-17T08:55:00.882Z,90.40
2023-03-17T08:58:24.379Z,90.30
2023-03-17T09:01:47.167Z,90.40
2023-03-17T09:05:13.821Z,90.40
2023-03-17T09:08:39.977Z,90.30
2023-03-17T09:12:05.309Z,90.40
2023-03-17T09:15:28.345Z,90.40
2023-03-17T09:18:51.258Z,90.30
2023-03-17T09:22:14.944Z,90.10
2023-03-17T09:25:38.524Z,89.80
2023-03-17T09:29:03.036Z,89.40
2023-03-17T09:32:26.360Z,89.20
2023-03-17T09:35:51.124Z,89.80
2023-03-17T09:39:13.425Z,90.10
2023-03-17T09:42:52.280Z,90.30
2023-03-17T09:46:45.050Z,90.00
2023-03-17T09:50:16.468Z,90.80
2023-03-17T09:54:11.764Z,90.40
2023-03-17T09:57:39.374Z,89.30
2023-03-17T10:01:05.371Z,89.30
2023-03-17T10:04:28.200Z,89.40
2023-03-17T10:08:31.778Z,89.90
2023-03-17T10:12:02.464Z,90.10
2023-03-17T10:15:38.468Z,90.10
2023-03-17T10:19:27.083Z,89.60
2023-03-17T10:22:54.789Z,89.50
2023-03-17T10:26:26.032Z,89.50
2023-03-17T10:29:48.802Z,89.40
2023-03-17T10:33:11.384Z,89.40
2023-03-17T10:36:37.932Z,89.30
2023-03-17T10:40:00.844Z,89.40
2023-03-17T10:43:27.758Z,89.60
2023-03-17T10:46:55.494Z,89.30
2023-03-17T10:50:33.008Z,89.10
2023-03-17T10:53:55.470Z,89.30
2023-03-17T10:57:18.743Z,89.40
2023-03-17T11:04:34.309Z,89.60
2023-03-17T11:08:18.990Z,89.70
2023-03-17T11:12:19.029Z,90.00
2023-03-17T11:16:05.436Z,90.00
2023-03-17T11:19:57.424Z,89.70
2023-03-17T11:23:45.347Z,89.60
2023-03-17T11:27:26.638Z,89.60
2023-03-17T11:31:10.079Z,89.50
2023-03-17T11:34:52.114Z,89.60
2023-03-17T11:38:29.236Z,89.40
2023-03-17T11:42:10.197Z,89.30
2023-03-17T11:45:45.581Z,90.00
2023-03-17T11:49:22.824Z,89.80
2023-03-17T11:53:17.210Z,89.60
2023-03-17T11:56:47.670Z,89.60
2023-03-17T12:00:37.426Z,89.50
2023-03-17T12:04:09.340Z,89.50
2023-03-17T12:07:44.831Z,89.40
2023-03-17T12:11:15.272Z,89.60
2023-03-17T12:14:50.003Z,89.60
2023-03-17T12:18:24.187Z,89.40
2023-03-17T12:21:57.367Z,89.40
2023-03-17T12:25:49.713Z,89.40
2023-03-17T12:29:14.244Z,89.20
2023-03-17T12:32:56.254Z,89.20
2023-03-17T12:36:19.279Z,89.20
2023-03-17T12:39:50.242Z,89.10
2023-03-17T12:43:26.691Z,89.70
2023-03-17T12:47:14.973Z,88.90
2023-03-17T12:50:55.972Z,89.10
2023-03-17T12:54:33.687Z,89.00
2023-03-17T12:58:15.658Z,89.10
2023-03-17T13:01:43.206Z,89.10
2023-03-17T13:05:14.954Z,89.30
2023-03-17T13:08:41.071Z,89.20
2023-03-17T13:12:06.683Z,89.20
2023-03-17T13:15:54.166Z,89.70
2023-03-17T13:19:18.957Z,89.70
2023-03-17T13:23:11.663Z,89.80
2023-03-17T13:26:55.253Z,89.80
2023-03-17T13:30:26.885Z,89.70
2023-03-17T13:33:56.313Z,89.70
2023-03-17T13:37:43.062Z,89.60
2023-03-17T13:41:34.456Z,89.50
2023-03-17T13:45:27.792Z,89.30
2023-03-17T13:48:52.285Z,89.30
2023-03-17T13:52:17.544Z,89.30
2023-03-17T13:55:41.146Z,89.20
2023-03-17T13:59:05.189Z,89.20
2023-03-17T14:02:31.839Z,89.30
2023-03-17T14:05:55.235Z,89.30
2023-03-17T14:09:17.403Z,89.20
2023-03-17T14:12:43.085Z,89.50
2023-03-17T14:16:14.099Z,89.80
2023-03-17T14:19:41.382Z,90.00
2023-03-17T14:23:04.618Z,89.70
2023-03-17T14:26:31.278Z,86.20
2023-03-17T14:29:53.604Z,85.70
2023-03-17T14:33:21.514Z,86.00
2023-03-17T14:36:44.327Z,86.20
2023-03-17T14:40:28.531Z,86.50
2023-03-17T14:43:52.292Z,87.50
2023-03-17T14:47:25.340Z,87.40
2023-03-17T14:50:55.701Z,87.50
2023-03-17T14:54:28.418Z,88.00
2023-03-17T14:57:52.425Z,88.10
2023-03-17T15:01:36.432Z,88.20
2023-03-17T15:05:06.695Z,88.70
2023-03-17T15:08:34.579Z,88.80
2023-03-17T15:12:17.830Z,91.00
2023-03-17T15:15:41.788Z,91.40
2023-03-17T15:19:17.971Z,91.60
2023-03-17T15:22:42.895Z,91.50
2023-03-17T15:26:09.892Z,91.80
2023-03-17T15:29:32.540Z,92.00
2023-03-17T15:33:02.597Z,91.50
2023-03-17T15:36:32.807Z,91.70
2023-03-17T15:39:56.448Z,91.80
2023-03-17T15:43:21.522Z,92.20
2023-03-17T15:46:43.738Z,92.20
2023-03-17T15:50:24.203Z,92.20
2023-03-17T15:53:47.358Z,92.30
2023-03-17T15:57:13.356Z,92.30
2023-03-17T16:00:36.269Z,92.60
2023-03-17T16:03:58.524Z,92.70
2023-03-17T16:07:22.126Z,92.30
2023-03-17T16:10:44.949Z,92.40
2023-03-17T16:14:07.232Z,92.50
2023-03-17T16:17:32.174Z,92.10
2023-03-17T16:20:54.783Z,92.30
2023-03-17T16:24:22.783Z,92.20
2023-03-17T16:27:45.891Z,92.00
2023-03-17T16:31:21.617Z,92.00
2023-03-17T16:34:43.921Z,91.90
2023-03-17T16:38:10.213Z,91.80
2023-03-17T16:41:35.120Z,91.60
2023-03-17T16:44:57.543Z,91.60
2023-03-17T16:48:20.264Z,91.70
2023-03-17T16:51:43.353Z,91.80
2023-03-17T16:55:08.042Z,91.90
2023-03-17T16:58:34.563Z,92.00
2023-03-17T17:02:01.296Z,92.40
2023-03-17T17:05:29.224Z,92.60
2023-03-17T17:08:52.184Z,93.00
2023-03-17T17:12:14.537Z,93.60
2023-03-17T17:15:38.010Z,93.70
2023-03-17T17:19:01.336Z,94.60
2023-03-17T17:22:23.566Z,94.20
2023-03-17T17:25:46.537Z,93.80
2023-03-17T17:29:08.736Z,93.50
2023-03-17T17:32:31.152Z,93.10
2023-03-17T17:35:53.547Z,93.20
2023-03-17T17:39:15.972Z,93.00
2023-03-17T17:42:38.194Z,93.40
2023-03-17T17:46:00.392Z,93.20
2023-03-17T17:49:22.675Z,93.80
2023-03-17T17:52:46.632Z,93.70
2023-03-17T17:56:18.777Z,93.50
2023-03-17T17:59:41.070Z,93.30
2023-03-17T18:03:03.429Z,92.40
2023-03-17T18:06:25.829Z,91.40
2023-03-17T18:09:47.991Z,91.10
2023-03-17T18:13:10.220Z,90.50
2023-03-17T18:16:32.428Z,90.80
2023-03-17T18:19:54.713Z,90.40
2023-03-17T18:23:17.531Z,91.00
2023-03-17T18:26:39.817Z,90.60
2023-03-17T18:30:02.934Z,91.20
2023-03-17T18:33:25.737Z,91.80
2023-03-17T18:36:48.128Z,91.80
2023-03-17T18:40:16.366Z,91.70
2023-03-17T18:43:42.506Z,91.10
2023-03-17T18:47:04.765Z,90.90
2023-03-17T18:50:27.267Z,91.10
2023-03-17T18:53:49.755Z,91.30
2023-03-17T18:57:12.348Z,91.30
2023-03-17T19:00:34.599Z,91.70
2023-03-17T19:03:56.785Z,91.00
2023-03-17T19:07:19.153Z,90.70
2023-03-17T19:10:44.050Z,90.80
2023-03-17T19:14:08.333Z,91.30
2023-03-17T19:17:30.618Z,91.10
2023-03-17T19:20:54.382Z,91.50
2023-03-17T19:24:17.022Z,91.40
2023-03-17T19:27:39.994Z,91.30
2023-03-17T19:31:02.347Z,91.30
2023-03-17T19:34:24.652Z,91.50
2023-03-17T19:37:46.856Z,91.50
2023-03-17T19:41:09.377Z,91.70
2023-03-17T19:44:31.661Z,91.80
2023-03-17T19:47:53.939Z,92.00
2023-03-17T19:51:16.267Z,92.00
2023-03-17T19:54:43.489Z,92.30
2023-03-17T19:58:08.181Z,92.30
2023-03-17T20:01:32.065Z,92.50
2023-03-17T20:04:55.508Z,92.50
2023-03-17T20:08:19.270Z,92.60
2023-03-17T20:11:41.606Z,93.10
2023-03-17T20:15:06.858Z,93.30
2023-03-17T20:18:29.655Z,93.80
2023-03-17T20:21:53.242Z,94.00
2023-03-17T20:25:15.521Z,95.30
2023-03-17T20:28:38.768Z,96.90
2023-03-17T20:32:02.178Z,97.20
2023-03-17T20:35:27.415Z,96.20
2023-03-17T20:38:49.670Z,96.50
2023-03-17T20:42:14.516Z,96.30
2023-03-17T20:45:37.923Z,96.70
2023-03-17T20:49:01.135Z,96.10
2023-03-17T20:52:23.423Z,96.20
2023-03-17T20:55:45.922Z,96.60
2023-03-17T20:59:09.593Z,96.20
2023-03-17T21:02:31.909Z,96.40
2023-03-17T21:05:54.133Z,95.80
2023-03-17T21:09:16.512Z,96.10
2023-03-17T21:12:38.926Z,95.70
2023-03-17T21:16:02.242Z,95.70
2023-03-17T21:19:24.504Z,95.30
2023-03-17T21:22:47.607Z,95.20
2023-03-17T21:26:10.643Z,95.30
2023-03-17T21:29:34.600Z,95.10
2023-03-17T21:32:56.968Z,95.20
2023-03-17T21:36:21.199Z,95.20
2023-03-17T21:39:44.624Z,95.10
2023-03-17T21:43:06.868Z,94.80
2023-03-17T21:46:29.710Z,94.90
2023-03-17T21:49:51.966Z,94.50
2023-03-17T21:53:15.821Z,94.80
2023-03-17T21:56:39.632Z,94.80
2023-03-17T22:00:04.023Z,94.60
2023-03-17T22:03:34.893Z,93.90
2023-03-17T22:06:58.887Z,94.50
2023-03-17T22:10:21.521Z,94.40
2023-03-17T22:13:44.619Z,94.40
2023-03-17T22:17:06.941Z,93.90
2023-03-17T22:20:30.209Z,94.80
2023-03-17T22:23:52.681Z,94.20
2023-03-17T22:27:17.133Z,94.30
2023-03-17T22:30:42.237Z,94.70
2023-03-17T22:34:04.604Z,94.50
2023-03-17T22:37:27.886Z,94.80
2023-03-17T22:41:04.057Z,94.90
2023-03-17T22:44:26.987Z,94.40
2023-03-17T22:47:49.431Z,94.30
2023-03-17T22:51:16.465Z,94.30
2023-03-17T22:54:38.726Z,94.60
2023-03-17T22:58:00.927Z,94.10
2023-03-17T23:01:25.748Z,92.00
2023-03-17T23:04:49.120Z,92.50
2023-03-17T23:08:11.332Z,92.30
2023-03-17T23:11:33.611Z,93.20
2023-03-17T23:14:55.924Z,92.70
2023-03-17T23:18:18.245Z,93.00
2023-03-17T23:21:40.551Z,92.80
2023-03-17T23:25:03.878Z,92.90
2023-03-17T23:28:26.465Z,92.40
2023-03-17T23:31:48.893Z,93.10
2023-03-17T23:35:13.530Z,92.60
2023-03-17T23:38:36.632Z,92.60
2023-03-17T23:41:58.843Z,92.70
2023-03-17T23:45:23.154Z,92.80
2023-03-17T23:48:45.441Z,92.40
2023-03-17T23:52:07.772Z,92.50
2023-03-17T23:55:30.620Z,92.30
2023-03-17T23:58:53.001Z,92.40
